Time;durP1;ratioP1;P1;durP2;ratioP2;P2;SDS_P1;SDS_P2;PMS_P1;PMS_P2;Temp;Humidity;BMP_temperature;BMP_pressure;BME280_temperature;BME280_humidity;BME280_pressure;Samples;Min_cycle;Max_cycle;Signal;HPM_P1;HPM_P2
2022/03/23 00:01:46;;;;;;;9.53;7.00;;;7.10;59.90;;;;;;4997817;28;20188;-68
2022/03/23 00:04:12;;;;;;;11.70;6.60;;;7.00;60.30;;;;;;5011899;28;20203;-68
2022/03/23 00:06:38;;;;;;;10.50;7.00;;;7.00;60.80;;;;;;5011977;28;20291;-68
2022/03/23 00:09:04;;;;;;;11.50;7.97;;;7.00;61.30;;;;;;5012027;28;20196;-69
2022/03/23 00:11:30;;;;;;;8.93;7.13;;;7.00;61.20;;;;;;5012972;28;20761;-68
2022/03/23 00:13:55;;;;;;;11.93;6.03;;;7.00;61.20;;;;;;5012440;28;20454;-69
2022/03/23 00:16:21;;;;;;;10.20;7.60;;;7.00;61.50;;;;;;5011982;28;20161;-69
2022/03/23 00:18:47;;;;;;;14.07;8.87;;;7.00;61.90;;;;;;5012311;28;20183;-69
2022/03/23 00:21:12;;;;;;;10.13;6.33;;;7.00;62.10;;;;;;5012080;28;20666;-69
2022/03/23 00:23:37;;;;;;;11.67;7.60;;;6.90;62.10;;;;;;5011514;28;20180;-69
2022/03/23 00:26:03;;;;;;;12.17;7.30;;;6.80;62.40;;;;;;5011807;28;20577;-69
2022/03/23 00:28:29;;;;;;;11.53;7.57;;;6.90;62.90;;;;;;5021994;28;20211;-69
2022/03/23 00:30:54;;;;;;;12.77;6.93;;;6.90;62.80;;;;;;5024402;28;20188;-68
2022/03/23 00:33:23;;;;;;;15.83;8.87;;;6.80;63.00;;;;;;5011759;28;20171;-69
2022/03/23 00:35:49;;;;;;;10.93;8.20;;;6.70;63.30;;;;;;5011571;28;20268;-70
2022/03/23 00:38:16;;;;;;;14.87;7.07;;;6.60;63.60;;;;;;5011637;28;20918;-68
2022/03/23 00:40:43;;;;;;;11.07;5.83;;;6.70;63.80;;;;;;5011552;28;20538;-68
2022/03/23 00:43:08;;;;;;;11.90;7.70;;;6.60;64.00;;;;;;5011889;28;20415;-69
2022/03/23 00:45:34;;;;;;;15.63;7.10;;;6.50;64.60;;;;;;5012039;28;20437;-69
2022/03/23 00:47:59;;;;;;;11.20;6.50;;;6.50;65.20;;;;;;5012093;28;20180;-69
2022/03/23 00:50:25;;;;;;;8.83;7.30;;;6.50;65.60;;;;;;5011581;28;20270;-68
2022/03/23 00:52:51;;;;;;;10.50;7.00;;;6.40;65.80;;;;;;5011365;28;20540;-68
2022/03/23 00:55:16;;;;;;;20.50;8.40;;;6.30;66.30;;;;;;5013123;28;20304;-69
2022/03/23 00:57:42;;;;;;;15.30;8.30;;;6.30;66.60;;;;;;5015209;28;20169;-69
2022/03/23 01:00:12;;;;;;;11.37;6.97;;;6.30;67.80;;;;;;5014953;28;20169;-68
2022/03/23 01:02:43;;;;;;;12.20;8.50;;;6.20;66.60;;;;;;5014850;28;20425;-68
2022/03/23 01:05:11;;;;;;;12.30;7.10;;;6.30;67.10;;;;;;5014926;28;20433;-68
2022/03/23 01:07:37;;;;;;;10.60;6.90;;;6.20;67.30;;;;;;5014919;28;20403;-68
2022/03/23 01:10:07;;;;;;;13.37;8.37;;;6.20;68.30;;;;;;5014799;28;20455;-68
2022/03/23 01:12:34;;;;;;;10.23;7.27;;;6.10;68.30;;;;;;5015364;28;20692;-68
2022/03/23 01:15:00;;;;;;;13.50;7.30;;;6.10;68.70;;;;;;5015055;28;20419;-68
2022/03/23 01:17:26;;;;;;;10.60;7.23;;;6.00;68.80;;;;;;5047079;22;20635;-65
2022/03/23 01:19:51;;;;;;;11.03;8.93;;;6.00;69.00;;;;;;5034180;28;20175;-65
2022/03/23 01:22:17;;;;;;;13.57;8.07;;;6.00;68.80;;;;;;5033931;28;20413;-66
2022/03/23 01:24:44;;;;;;;12.10;7.10;;;5.90;68.70;;;;;;5033813;28;20263;-65
2022/03/23 01:27:09;;;;;;;12.07;7.97;;;5.90;68.90;;;;;;5033821;28;20419;-65
2022/03/23 01:29:35;;;;;;;13.87;7.83;;;5.90;68.60;;;;;;5034158;28;20465;-66
2022/03/23 01:32:00;;;;;;;11.30;8.20;;;5.90;68.90;;;;;;5033996;28;20168;-66
2022/03/23 01:34:26;;;;;;;15.50;7.63;;;5.90;69.40;;;;;;5034132;28;20168;-66
2022/03/23 01:36:51;;;;;;;8.97;6.17;;;5.80;69.40;;;;;;5033759;28;20245;-66
2022/03/23 01:39:17;;;;;;;11.70;8.03;;;5.70;70.20;;;;;;5034027;28;20638;-66
2022/03/23 01:41:42;;;;;;;11.17;6.33;;;5.70;70.60;;;;;;5033638;28;20183;-66
2022/03/23 01:44:19;;;;;;;12.37;7.13;;;5.70;70.80;;;;;;5033789;28;20187;-66
2022/03/23 01:47:04;;;;;;;14.37;7.03;;;5.70;71.20;;;;;;5033888;28;20339;-66
2022/03/23 01:49:29;;;;;;;7.23;6.50;;;5.70;71.80;;;;;;5033861;28;20449;-66
2022/03/23 01:51:55;;;;;;;9.63;7.37;;;5.70;71.50;;;;;;5033855;28;20402;-66
2022/03/23 01:54:21;;;;;;;15.80;6.80;;;5.70;70.70;;;;;;5033926;28;20202;-65
2022/03/23 01:56:48;;;;;;;11.10;5.73;;;5.90;69.90;;;;;;5033677;28;20242;-66
2022/03/23 01:59:14;;;;;;;10.93;6.17;;;5.90;69.70;;;;;;5033709;28;20203;-66
2022/03/23 02:01:40;;;;;;;10.90;6.77;;;5.80;70.10;;;;;;5033653;28;20418;-66
2022/03/23 02:04:06;;;;;;;8.43;5.90;;;5.80;69.80;;;;;;5034017;28;20840;-66
2022/03/23 02:06:31;;;;;;;7.90;5.97;;;5.90;69.80;;;;;;5032194;28;20191;-66
2022/03/23 02:08:57;;;;;;;13.33;7.30;;;6.00;69.60;;;;;;5033688;28;20292;-66
2022/03/23 02:11:24;;;;;;;12.57;7.13;;;6.00;69.20;;;;;;5033251;28;20448;-66
2022/03/23 02:13:50;;;;;;;14.83;7.10;;;6.00;69.00;;;;;;5033327;28;20399;-66
2022/03/23 02:16:15;;;;;;;14.37;7.57;;;6.10;69.20;;;;;;5033008;28;20413;-66
2022/03/23 02:18:41;;;;;;;14.33;8.03;;;6.00;69.80;;;;;;5033218;28;20642;-66
2022/03/23 02:21:06;;;;;;;6.80;5.67;;;5.80;70.50;;;;;;5032958;28;20164;-66
2022/03/23 02:23:31;;;;;;;7.83;7.10;;;5.80;70.70;;;;;;5033031;28;20617;-66
2022/03/23 02:26:01;;;;;;;11.20;6.77;;;5.80;70.30;;;;;;5032928;28;20167;-66
2022/03/23 02:28:27;;;;;;;9.87;7.00;;;5.80;71.10;;;;;;5033023;28;20222;-66
2022/03/23 02:30:53;;;;;;;8.93;6.87;;;5.70;71.40;;;;;;5032901;28;20888;-66
2022/03/23 02:33:20;;;;;;;13.37;7.60;;;5.70;72.20;;;;;;5014999;28;20497;-66
2022/03/23 02:35:45;;;;;;;13.93;8.70;;;6.00;71.80;;;;;;5032714;28;20414;-66
2022/03/23 02:38:11;;;;;;;12.83;7.60;;;5.80;71.90;;;;;;5032747;28;20419;-66
2022/03/23 02:40:36;;;;;;;10.43;7.07;;;5.70;72.30;;;;;;5032930;28;20599;-67
2022/03/23 02:43:02;;;;;;;9.33;6.80;;;5.70;73.30;;;;;;5032536;28;20156;-67
2022/03/23 02:45:28;;;;;;;9.97;6.40;;;5.70;73.30;;;;;;5032789;28;20168;-66
2022/03/23 02:47:53;;;;;;;15.20;9.80;;;5.50;73.30;;;;;;5032698;28;20213;-66
2022/03/23 02:50:19;;;;;;;13.60;7.63;;;5.50;74.20;;;;;;5032528;28;20213;-66
2022/03/23 03:03:55;;;;;;;15.87;9.27;;;5.30;75.80;;;;;;5032691;28;20393;-68
2022/03/23 03:06:20;;;;;;;10.23;6.47;;;5.20;76.50;;;;;;5032018;28;20399;-66
2022/03/23 03:08:47;;;;;;;9.10;7.00;;;5.20;77.60;;;;;;5032266;28;20204;-66
2022/03/23 03:11:13;;;;;;;11.87;7.30;;;5.40;77.70;;;;;;5032567;28;20550;-66
2022/03/23 03:13:40;;;;;;;12.37;7.40;;;5.50;77.70;;;;;;5032996;28;20410;-65
2022/03/23 03:16:05;;;;;;;9.67;7.63;;;5.50;77.60;;;;;;5031887;28;20899;-66
2022/03/23 03:18:32;;;;;;;13.60;7.20;;;5.30;77.70;;;;;;5031607;28;20458;-66
2022/03/23 03:21:00;;;;;;;10.90;7.63;;;5.20;78.50;;;;;;5031796;28;20688;-66
2022/03/23 03:23:25;;;;;;;13.63;9.17;;;5.20;78.60;;;;;;5032171;28;20780;-66
2022/03/23 03:25:51;;;;;;;9.03;6.37;;;5.20;78.80;;;;;;5031848;28;20402;-66
2022/03/23 03:28:16;;;;;;;10.20;6.70;;;5.20;78.60;;;;;;5031649;28;20192;-66
2022/03/23 03:30:42;;;;;;;13.53;6.60;;;5.10;78.80;;;;;;5031957;28;20230;-66
2022/03/23 03:33:07;;;;;;;13.43;8.30;;;5.10;79.40;;;;;;5031746;28;20172;-66
2022/03/23 03:35:33;;;;;;;9.77;8.33;;;5.10;79.30;;;;;;5031486;28;20164;-66
2022/03/23 03:37:58;;;;;;;11.90;7.10;;;5.10;78.90;;;;;;5031613;28;20195;-66
2022/03/23 03:40:24;;;;;;;8.27;6.90;;;5.10;78.90;;;;;;5032003;28;20182;-66
2022/03/23 03:42:50;;;;;;;17.70;8.13;;;5.00;78.80;;;;;;5031580;28;20245;-66
2022/03/23 03:45:15;;;;;;;9.23;7.07;;;4.90;79.50;;;;;;5031505;28;20170;-66
2022/03/23 03:47:40;;;;;;;13.73;7.50;;;4.90;80.40;;;;;;5031598;28;20206;-66
2022/03/23 03:50:06;;;;;;;9.87;6.60;;;5.00;80.50;;;;;;5031299;28;20257;-66
2022/03/23 03:52:32;;;;;;;10.30;8.37;;;4.80;80.30;;;;;;5031612;28;20191;-66
2022/03/23 03:54:57;;;;;;;13.37;7.40;;;4.70;80.90;;;;;;5031553;28;20638;-66
2022/03/23 03:57:23;;;;;;;9.90;7.70;;;4.70;81.30;;;;;;5031505;28;20191;-66
2022/03/23 03:59:48;;;;;;;11.93;8.10;;;4.60;81.80;;;;;;5032711;28;20251;-66
2022/03/23 04:02:14;;;;;;;11.67;7.50;;;4.60;82.10;;;;;;5033114;28;20551;-66
2022/03/23 04:04:40;;;;;;;12.07;8.47;;;4.50;82.60;;;;;;5032013;28;20176;-66
2022/03/23 04:07:05;;;;;;;7.00;6.30;;;4.80;83.20;;;;;;5032194;28;20499;-66
2022/03/23 04:09:31;;;;;;;11.27;8.33;;;4.80;81.50;;;;;;5031339;28;20218;-67
2022/03/23 04:11:56;;;;;;;9.67;7.93;;;4.80;81.40;;;;;;5031551;28;20171;-68
2022/03/23 04:14:22;;;;;;;11.87;6.87;;;4.70;81.70;;;;;;5031546;28;20253;-67
2022/03/23 04:16:47;;;;;;;10.80;7.03;;;4.60;82.00;;;;;;5031086;28;20800;-67
2022/03/23 04:19:13;;;;;;;13.20;7.17;;;4.50;82.30;;;;;;5031380;28;20580;-67
2022/03/23 04:21:38;;;;;;;9.67;6.53;;;4.50;82.30;;;;;;5031351;28;20175;-67
2022/03/23 04:24:04;;;;;;;15.83;7.43;;;4.50;82.50;;;;;;5031425;28;20263;-67
2022/03/23 04:26:29;;;;;;;11.73;7.20;;;4.60;82.70;;;;;;5031252;28;20613;-66
2022/03/23 04:28:55;;;;;;;9.93;6.10;;;4.60;82.60;;;;;;5031172;28;20192;-66
2022/03/23 04:31:20;;;;;;;11.93;7.20;;;4.50;82.80;;;;;;5034899;28;20622;-66
2022/03/23 04:33:46;;;;;;;11.63;8.20;;;4.50;83.20;;;;;;5035508;28;20190;-66
2022/03/23 04:36:12;;;;;;;8.20;6.00;;;4.50;83.50;;;;;;5035122;28;20694;-66
2022/03/23 04:38:37;;;;;;;9.37;6.93;;;4.50;83.90;;;;;;5035356;28;20724;-67
2022/03/23 04:41:04;;;;;;;12.73;7.57;;;4.50;84.00;;;;;;5017472;28;20199;-66
2022/03/23 04:43:30;;;;;;;11.90;7.10;;;4.40;83.70;;;;;;5035310;28;20180;-66
2022/03/23 04:45:55;;;;;;;11.03;5.70;;;4.40;84.30;;;;;;5035017;28;20528;-66
2022/03/23 04:48:21;;;;;;;11.30;7.03;;;4.30;84.50;;;;;;5034514;28;20531;-66
2022/03/23 04:50:48;;;;;;;14.60;6.90;;;4.30;84.70;;;;;;5034588;28;20483;-66
2022/03/23 04:53:14;;;;;;;9.87;7.20;;;4.30;84.90;;;;;;5034885;28;20164;-66
2022/03/23 04:55:39;;;;;;;8.47;7.60;;;4.20;85.00;;;;;;5034761;28;20410;-68
2022/03/23 04:58:05;;;;;;;9.50;7.70;;;4.20;85.60;;;;;;5034574;28;20425;-67
2022/03/23 05:00:31;;;;;;;6.80;6.10;;;4.20;85.80;;;;;;5034846;28;20171;-67
2022/03/23 05:02:56;;;;;;;7.97;6.87;;;4.10;85.50;;;;;;5034649;28;20178;-67
2022/03/23 05:05:22;;;;;;;13.07;8.60;;;4.10;85.70;;;;;;5034815;28;20821;-69
2022/03/23 05:07:47;;;;;;;7.83;6.00;;;4.00;85.60;;;;;;5034607;28;20257;-67
2022/03/23 05:10:14;;;;;;;6.50;5.53;;;4.00;85.60;;;;;;5034541;28;20214;-67
2022/03/23 05:12:42;;;;;;;7.13;6.37;;;4.00;86.00;;;;;;5034456;28;20195;-67
2022/03/23 05:15:09;;;;;;;8.53;6.67;;;4.00;86.50;;;;;;5034496;28;20406;-67
2022/03/23 05:17:36;;;;;;;12.50;6.33;;;4.00;86.80;;;;;;5034198;28;20505;-67
2022/03/23 05:20:04;;;;;;;12.00;6.73;;;4.10;86.50;;;;;;5034372;28;20410;-67
2022/03/23 05:22:30;;;;;;;10.77;6.00;;;4.10;86.30;;;;;;5034537;28;20414;-67
2022/03/23 05:24:56;;;;;;;12.37;8.00;;;4.10;86.40;;;;;;5034317;28;20421;-67
2022/03/23 05:27:22;;;;;;;12.53;6.50;;;4.10;86.80;;;;;;5034179;28;20987;-67
2022/03/23 05:29:47;;;;;;;13.67;7.93;;;4.10;87.10;;;;;;5034146;28;20535;-67
2022/03/23 05:32:16;;;;;;;10.70;6.53;;;4.10;87.20;;;;;;5033935;28;20179;-67
2022/03/23 05:34:49;;;;;;;9.70;8.20;;;4.10;87.30;;;;;;5034192;28;20263;-67
2022/03/23 05:37:16;;;;;;;14.43;8.23;;;4.20;87.90;;;;;;5034118;28;20479;-67
2022/03/23 05:39:42;;;;;;;9.00;6.63;;;4.30;87.80;;;;;;5034179;28;20411;-67
2022/03/23 05:42:08;;;;;;;10.97;7.47;;;4.40;87.50;;;;;;5033472;28;20421;-67
2022/03/23 05:44:34;;;;;;;9.67;6.60;;;4.50;87.60;;;;;;5033668;28;20186;-66
2022/03/23 05:47:00;;;;;;;9.60;6.90;;;4.60;86.80;;;;;;5033855;28;20194;-66
2022/03/23 05:49:25;;;;;;;9.50;8.53;;;4.70;86.20;;;;;;5031758;28;20461;-66
2022/03/23 05:51:52;;;;;;;9.17;7.73;;;4.90;85.50;;;;;;5033314;28;20657;-66
2022/03/23 05:54:18;;;;;;;14.50;6.17;;;5.00;84.70;;;;;;5033580;28;20182;-67
2022/03/23 05:56:43;;;;;;;10.20;6.97;;;5.10;84.30;;;;;;5033397;28;20797;-66
2022/03/23 05:59:09;;;;;;;7.63;6.53;;;5.30;84.10;;;;;;5033380;28;20190;-66
2022/03/23 06:01:35;;;;;;;15.10;7.17;;;5.30;83.80;;;;;;5033474;28;20256;-66
2022/03/23 06:04:00;;;;;;;12.27;8.27;;;5.90;82.50;;;;;;5033699;28;20174;-66
2022/03/23 06:06:26;;;;;;;13.20;7.50;;;6.60;80.40;;;;;;5033055;28;20755;-66
2022/03/23 06:08:51;;;;;;;15.17;8.27;;;7.10;78.30;;;;;;5033279;28;20741;-66
2022/03/23 06:11:17;;;;;;;9.50;7.03;;;7.80;77.00;;;;;;5033312;28;20190;-67
2022/03/23 06:13:44;;;;;;;9.17;6.73;;;8.20;74.20;;;;;;5033582;28;20188;-66
2022/03/23 06:16:10;;;;;;;11.10;7.47;;;9.00;73.50;;;;;;5034017;28;20176;-67
2022/03/23 06:18:36;;;;;;;13.70;7.67;;;9.80;71.20;;;;;;5033698;28;20509;-68
2022/03/23 06:21:03;;;;;;;14.70;9.10;;;10.40;66.50;;;;;;5033426;28;20564;-67
2022/03/23 06:23:28;;;;;;;15.00;9.20;;;10.60;64.40;;;;;;5032656;28;20677;-66
2022/03/23 06:25:54;;;;;;;12.27;8.57;;;10.60;63.90;;;;;;5032999;28;20407;-67
2022/03/23 06:28:19;;;;;;;14.90;8.97;;;10.20;64.10;;;;;;5033016;28;20196;-67
2022/03/23 06:30:45;;;;;;;11.47;7.20;;;10.00;66.10;;;;;;5032971;28;20182;-67
2022/03/23 06:33:11;;;;;;;11.90;8.10;;;11.00;63.30;;;;;;5032693;28;20176;-66
2022/03/23 06:35:37;;;;;;;13.47;9.40;;;11.90;61.40;;;;;;5032864;28;20681;-66
2022/03/23 06:38:02;;;;;;;14.53;9.50;;;12.60;59.10;;;;;;5032643;28;20422;-66
2022/03/23 06:40:28;;;;;;;10.50;7.83;;;12.70;58.10;;;;;;5032890;28;20222;-66
2022/03/23 06:42:53;;;;;;;13.87;8.97;;;12.80;57.80;;;;;;5032546;28;20528;-66
2022/03/23 06:45:19;;;;;;;15.30;9.70;;;12.40;57.80;;;;;;5032779;28;20174;-66
2022/03/23 06:47:45;;;;;;;13.60;9.67;;;12.70;58.40;;;;;;5032377;28;20205;-66
2022/03/23 06:50:11;;;;;;;14.17;11.03;;;12.70;57.80;;;;;;5032266;28;20465;-66
2022/03/23 06:52:36;;;;;;;12.47;8.70;;;13.40;57.00;;;;;;5031842;28;20175;-66
2022/03/23 06:55:03;;;;;;;13.80;11.13;;;13.80;55.20;;;;;;5014581;28;20304;-66
2022/03/23 06:57:29;;;;;;;12.70;9.83;;;14.20;54.30;;;;;;5032048;28;20281;-66
2022/03/23 06:59:54;;;;;;;15.63;10.50;;;13.60;54.80;;;;;;5032204;28;20445;-66
2022/03/23 07:02:20;;;;;;;12.00;10.43;;;13.50;54.60;;;;;;5032433;28;20674;-66
2022/03/23 07:04:46;;;;;;;14.47;10.37;;;12.80;55.80;;;;;;5032406;28;20649;-66
2022/03/23 07:07:11;;;;;;;14.23;9.77;;;13.40;55.70;;;;;;5032655;28;20255;-66
2022/03/23 07:09:39;;;;;;;17.03;12.23;;;13.60;54.60;;;;;;5032627;28;20242;-67
2022/03/23 07:12:07;;;;;;;14.60;10.67;;;13.90;54.00;;;;;;5032254;28;20229;-66
2022/03/23 07:14:34;;;;;;;13.67;10.77;;;14.80;53.30;;;;;;5032441;28;20887;-66
2022/03/23 07:17:00;;;;;;;11.93;9.40;;;14.90;53.80;;;;;;5032037;28;20449;-66
2022/03/23 07:19:26;;;;;;;15.57;9.33;;;14.70;53.00;;;;;;5032708;28;20411;-67
2022/03/23 07:21:52;;;;;;;14.93;10.40;;;14.20;53.50;;;;;;5032706;28;20176;-67
2022/03/23 07:24:18;;;;;;;16.93;10.67;;;14.70;53.50;;;;;;5032474;28;20543;-67
2022/03/23 07:26:44;;;;;;;17.40;11.70;;;15.40;52.70;;;;;;5031978;28;20217;-67
2022/03/23 07:29:09;;;;;;;13.57;9.87;;;14.60;52.20;;;;;;5031833;28;20202;-68
2022/03/23 07:31:35;;;;;;;11.60;10.17;;;14.20;53.10;;;;;;5032004;28;20914;-66
2022/03/23 07:34:02;;;;;;;16.20;11.00;;;15.30;51.30;;;;;;5031797;28;20186;-66
2022/03/23 07:36:27;;;;;;;16.27;8.87;;;16.20;50.20;;;;;;5031686;28;20176;-66
2022/03/23 07:38:53;;;;;;;10.80;9.30;;;16.30;49.30;;;;;;5030938;28;20438;-67
2022/03/23 07:41:18;;;;;;;16.13;9.40;;;15.60;49.30;;;;;;5031580;28;20524;-67
2022/03/23 07:43:44;;;;;;;12.80;10.13;;;15.90;49.20;;;;;;5031832;28;20197;-67
2022/03/23 07:46:10;;;;;;;12.63;9.03;;;15.40;50.10;;;;;;5031446;28;20168;-67
2022/03/23 07:48:35;;;;;;;12.53;8.97;;;14.60;50.00;;;;;;5031738;28;20178;-67
2022/03/23 07:51:01;;;;;;;11.10;8.93;;;16.50;49.80;;;;;;5045038;28;20200;-67
2022/03/23 07:53:26;;;;;;;11.00;9.00;;;15.80;48.80;;;;;;5050821;28;20173;-67
2022/03/23 07:55:52;;;;;;;12.30;9.10;;;15.80;48.60;;;;;;5050429;28;20173;-67
2022/03/23 07:58:18;;;;;;;10.50;9.00;;;16.60;48.70;;;;;;5031563;28;20189;-67
2022/03/23 08:00:45;;;;;;;11.67;10.13;;;17.60;47.80;;;;;;5031683;28;20698;-67
2022/03/23 08:03:10;;;;;;;12.27;9.47;;;17.70;46.90;;;;;;5031373;28;20280;-69
2022/03/23 08:05:40;;;;;;;10.70;8.93;;;18.20;46.90;;;;;;5031321;28;20460;-67
2022/03/23 08:08:08;;;;;;;11.37;10.17;;;18.00;46.10;;;;;;5031471;28;20531;-67
2022/03/23 08:10:34;;;;;;;11.20;10.20;;;18.00;46.00;;;;;;5031190;28;20440;-67
2022/03/23 08:13:00;;;;;;;11.67;10.40;;;16.10;46.60;;;;;;5031439;28;20420;-67
2022/03/23 08:15:29;;;;;;;13.23;10.87;;;16.10;47.90;;;;;;5031241;28;20739;-67
2022/03/23 08:17:54;;;;;;;12.13;10.93;;;16.80;47.30;;;;;;5031193;28;20207;-68
2022/03/23 08:20:32;;;;;;;12.60;10.30;;;17.50;45.60;;;;;;5031169;28;20416;-67
2022/03/23 08:22:58;;;;;;;11.33;9.20;;;17.60;45.30;;;;;;5031028;28;20195;-67
2022/03/23 08:25:24;;;;;;;11.40;10.03;;;15.70;48.00;;;;;;5031207;28;20758;-68
2022/03/23 08:27:49;;;;;;;9.90;8.90;;;15.70;48.90;;;;;;5031394;28;20440;-67
2022/03/23 08:30:15;;;;;;;11.50;8.70;;;16.20;48.00;;;;;;5031319;28;20221;-67
2022/03/23 08:32:41;;;;;;;12.13;9.80;;;17.20;47.50;;;;;;5031651;28;20191;-68
2022/03/23 08:35:07;;;;;;;12.23;10.87;;;16.60;47.10;;;;;;5031223;28;20177;-67
2022/03/23 08:37:32;;;;;;;13.67;9.87;;;15.40;47.60;;;;;;5031321;28;20278;-68
2022/03/23 08:39:58;;;;;;;11.77;10.10;;;16.20;49.20;;;;;;5031171;28;20418;-68
2022/03/23 08:42:24;;;;;;;9.90;8.47;;;15.70;48.00;;;;;;5031098;28;20170;-68
2022/03/23 08:44:49;;;;;;;15.50;10.07;;;17.20;48.10;;;;;;5030878;28;20472;-68
2022/03/23 08:47:17;;;;;;;11.47;8.80;;;17.20;46.00;;;;;;5030750;28;20197;-68
2022/03/23 08:49:42;;;;;;;13.00;11.23;;;16.80;46.70;;;;;;5030734;28;20227;-66
2022/03/23 08:52:08;;;;;;;14.67;10.63;;;16.40;46.40;;;;;;5030782;28;20446;-68
2022/03/23 08:54:34;;;;;;;10.57;9.03;;;16.30;47.10;;;;;;5030938;28;20170;-69
2022/03/23 08:56:59;;;;;;;11.50;8.47;;;16.60;47.30;;;;;;5030674;28;20224;-66
2022/03/23 08:59:25;;;;;;;11.23;10.07;;;16.90;46.00;;;;;;5030653;28;20232;-66
2022/03/23 09:01:51;;;;;;;12.73;9.93;;;16.70;46.90;;;;;;5030688;28;20605;-69
2022/03/23 09:04:16;;;;;;;13.67;10.67;;;17.90;46.10;;;;;;5030854;28;20264;-68
2022/03/23 09:06:42;;;;;;;12.13;10.00;;;18.20;44.20;;;;;;5030688;28;20455;-66
2022/03/23 09:09:08;;;;;;;13.77;9.40;;;17.20;46.80;;;;;;5030911;28;20224;-67
2022/03/23 09:11:33;;;;;;;10.97;9.70;;;16.90;46.50;;;;;;5030644;28;20178;-67
2022/03/23 09:13:58;;;;;;;10.80;9.63;;;16.40;47.20;;;;;;5030976;28;20640;-67
2022/03/23 09:16:24;;;;;;;11.73;10.53;;;17.00;46.60;;;;;;5032672;28;20488;-68
2022/03/23 09:18:50;;;;;;;10.83;9.30;;;18.40;43.90;;;;;;5034342;28;20676;-68
2022/03/23 09:21:16;;;;;;;13.00;10.40;;;19.20;43.70;;;;;;5034112;28;20666;-68
2022/03/23 09:23:41;;;;;;;10.57;9.00;;;18.30;44.10;;;;;;5034152;28;20177;-68
2022/03/23 09:26:09;;;;;;;11.37;9.83;;;18.20;43.50;;;;;;5034372;28;20500;-68
2022/03/23 09:28:35;;;;;;;9.53;7.67;;;19.00;43.60;;;;;;5034057;28;20269;-68
2022/03/23 09:31:00;;;;;;;11.10;9.80;;;19.60;43.90;;;;;;5034029;28;20867;-68
2022/03/23 09:33:27;;;;;;;12.60;10.30;;;19.80;42.00;;;;;;5034072;28;20175;-68
2022/03/23 09:35:53;;;;;;;12.47;11.10;;;19.40;42.10;;;;;;5033783;28;20181;-68
2022/03/23 09:38:18;;;;;;;14.70;11.17;;;18.40;42.50;;;;;;5033788;28;20425;-67
2022/03/23 09:40:49;;;;;;;10.50;9.30;;;18.20;44.50;;;;;;5034106;28;20617;-68
2022/03/23 09:43:19;;;;;;;11.70;10.47;;;18.50;43.20;;;;;;5033965;28;20183;-68
2022/03/23 09:48:11;;;;;;;15.87;10.90;;;19.60;42.00;;;;;;5033672;28;20447;-67
2022/03/23 09:50:46;;;;;;;11.27;9.70;;;18.60;42.10;;;;;;5033526;28;20716;-68
2022/03/23 09:53:13;;;;;;;11.50;10.00;;;19.20;42.10;;;;;;5033858;28;20487;-68
2022/03/23 09:55:38;;;;;;;14.33;10.40;;;19.10;41.60;;;;;;5034004;28;21005;-68
2022/03/23 09:58:06;;;;;;;15.50;10.60;;;18.90;42.40;;;;;;5033689;28;20451;-68
2022/03/23 10:00:37;;;;;;;12.50;9.90;;;19.20;42.50;;;;;;5034089;28;20178;-68
2022/03/23 10:03:09;;;;;;;13.43;9.77;;;19.00;41.70;;;;;;5033514;28;20416;-66
2022/03/23 10:06:12;;;;;;;11.70;10.10;;;18.70;42.40;;;;;;5033986;28;20424;-66
2022/03/23 10:09:05;;;;;;;13.30;10.63;;;19.00;41.70;;;;;;5033499;28;20392;-66
2022/03/23 10:11:54;;;;;;;12.13;10.07;;;18.60;42.00;;;;;;5032877;28;20502;-66
2022/03/23 10:14:58;;;;;;;11.70;9.90;;;18.60;42.20;;;;;;5013390;28;20409;-68
2022/03/23 10:17:42;;;;;;;13.37;10.27;;;18.60;42.50;;;;;;5013125;28;20449;-66
2022/03/23 10:20:10;;;;;;;14.70;9.87;;;18.30;42.80;;;;;;5013675;28;20775;-68
2022/03/23 10:22:43;;;;;;;10.40;8.90;;;17.30;42.80;;;;;;5013284;28;20402;-69
2022/03/23 10:25:09;;;;;;;16.10;9.83;;;17.50;43.50;;;;;;5013421;28;20393;-68
2022/03/23 10:27:35;;;;;;;10.77;9.37;;;17.50;43.30;;;;;;5012623;28;20479;-68
2022/03/23 10:30:01;;;;;;;13.37;9.70;;;17.30;43.70;;;;;;5013800;28;20439;-68
2022/03/23 10:32:34;;;;;;;13.23;8.97;;;17.40;43.10;;;;;;5013643;28;20176;-68
2022/03/23 10:35:00;;;;;;;11.40;9.47;;;17.60;42.80;;;;;;5013477;28;20703;-68
2022/03/23 10:37:31;;;;;;;14.00;9.93;;;17.60;42.70;;;;;;5013363;28;20464;-69
2022/03/23 10:40:01;;;;;;;13.50;9.47;;;17.40;43.40;;;;;;5013511;28;20166;-67
2022/03/23 10:42:31;;;;;;;11.73;9.60;;;16.90;43.70;;;;;;5013263;28;20906;-67
2022/03/23 10:45:11;;;;;;;12.60;9.27;;;16.80;44.60;;;;;;5012906;28;20959;-67
2022/03/23 10:47:39;;;;;;;12.90;9.50;;;17.20;43.30;;;;;;5012850;28;20505;-67
2022/03/23 10:50:23;;;;;;;13.33;9.70;;;17.30;43.10;;;;;;5018575;28;20545;-67
2022/03/23 10:52:59;;;;;;;12.53;9.10;;;17.20;42.80;;;;;;5032613;28;20412;-67
2022/03/23 10:55:30;;;;;;;13.80;9.70;;;17.10;43.20;;;;;;5032684;28;20406;-67
2022/03/23 10:57:58;;;;;;;12.07;8.87;;;17.20;43.60;;;;;;5032312;28;20456;-68
2022/03/23 11:00:32;;;;;;;12.60;8.70;;;17.30;43.40;;;;;;5032352;28;20529;-67
2022/03/23 11:02:59;;;;;;;12.83;8.60;;;17.30;43.90;;;;;;5032521;28;20448;-68
2022/03/23 11:05:32;;;;;;;12.30;8.53;;;17.50;43.60;;;;;;5032317;28;20528;-67
2022/03/23 11:08:10;;;;;;;10.47;8.27;;;17.30;43.80;;;;;;5014671;28;20427;-69
2022/03/23 11:16:16;;;;;;;13.93;10.00;;;17.50;44.00;;;;;;5032173;28;20395;-67
2022/03/23 11:18:42;;;;;;;11.30;9.10;;;17.60;43.80;;;;;;5032048;28;20481;-68
2022/03/23 11:21:08;;;;;;;10.00;8.87;;;17.70;44.10;;;;;;5031982;28;20405;-67
2022/03/23 11:23:37;;;;;;;11.60;9.40;;;17.80;44.10;;;;;;5032168;28;20542;-68
2022/03/23 11:26:05;;;;;;;12.27;8.60;;;17.70;44.40;;;;;;5031969;28;20171;-69
2022/03/23 11:28:34;;;;;;;14.30;9.53;;;17.50;44.20;;;;;;5031728;28;20424;-69
2022/03/23 11:31:02;;;;;;;12.67;9.87;;;17.60;44.20;;;;;;5031744;28;20405;-68
2022/03/23 11:33:31;;;;;;;13.47;9.87;;;17.70;44.00;;;;;;5031881;28;20407;-69
2022/03/23 11:35:57;;;;;;;10.70;8.53;;;17.80;43.70;;;;;;5031820;28;20406;-68
2022/03/23 11:38:26;;;;;;;9.73;8.40;;;17.50;43.90;;;;;;5031730;28;20425;-68
2022/03/23 11:40:53;;;;;;;25.80;15.33;;;17.50;44.90;;;;;;5032162;28;20175;-67
2022/03/23 11:43:22;;;;;;;19.20;15.13;;;17.70;46.10;;;;;;5031709;28;20759;-68
2022/03/23 11:45:49;;;;;;;10.87;8.30;;;17.90;46.10;;;;;;5031538;28;20446;-68
2022/03/23 11:48:42;;;;;;;11.97;9.43;;;18.00;44.50;;;;;;5031425;28;20455;-67
2022/03/23 11:51:30;;;;;;;13.70;10.00;;;18.00;44.00;;;;;;5031530;28;20423;-68
2022/03/23 11:54:08;;;;;;;13.53;9.83;;;18.00;44.10;;;;;;5031720;28;20409;-67
2022/03/23 11:56:45;;;;;;;11.87;9.90;;;18.10;43.90;;;;;;5031350;28;20438;-68
2022/03/23 11:59:29;;;;;;;13.60;9.80;;;18.00;43.70;;;;;;5031598;28;20448;-67
2022/03/23 12:01:56;;;;;;;14.60;9.50;;;18.00;44.20;;;;;;5031637;28;20405;-67
2022/03/23 12:04:28;;;;;;;10.80;9.07;;;18.20;44.00;;;;;;5031665;28;20405;-67
2022/03/23 12:07:09;;;;;;;11.00;8.97;;;18.20;44.20;;;;;;5031624;28;20517;-68
2022/03/23 12:09:41;;;;;;;10.60;9.20;;;18.20;44.30;;;;;;5031476;28;20445;-67
2022/03/23 12:12:49;;;;;;;14.03;10.40;;;18.00;44.20;;;;;;5031177;28;20500;-68
2022/03/23 12:15:23;;;;;;;12.70;9.17;;;18.00;43.40;;;;;;4931874;29;20435;-67
2022/03/23 12:17:54;;;;;;;17.53;10.63;;;18.00;43.60;;;;;;5016043;28;20516;-67
2022/03/23 12:20:37;;;;;;;13.00;9.20;;;18.00;42.90;;;;;;5031744;28;20508;-67
2022/03/23 12:23:15;;;;;;;30.23;18.47;;;18.10;42.60;;;;;;5031807;28;20401;-67
2022/03/23 12:26:05;;;;;;;15.63;11.30;;;18.30;44.90;;;;;;5031866;28;20418;-68
2022/03/23 12:28:43;;;;;;;10.20;9.20;;;18.20;42.70;;;;;;5031716;28;20467;-68
2022/03/23 12:31:13;;;;;;;9.10;7.87;;;18.20;42.60;;;;;;5031615;28;20455;-68
2022/03/23 12:34:04;;;;;;;10.30;8.87;;;18.30;42.00;;;;;;5031918;28;20393;-67
2022/03/23 12:39:27;;;;;;;12.73;10.37;;;18.60;42.20;;;;;;5031933;28;20731;-67
2022/03/23 12:41:52;;;;;;;12.93;10.67;;;18.50;42.60;;;;;;5031141;28;20422;-68
2022/03/23 12:44:28;;;;;;;12.07;9.67;;;18.30;42.70;;;;;;5031155;28;20831;-68
2022/03/23 12:46:53;;;;;;;14.40;10.03;;;18.30;42.90;;;;;;5030989;28;20762;-67
2022/03/23 12:57:49;;;;;;;12.37;9.33;;;18.50;42.80;;;;;;5026354;28;20467;-67
2022/03/23 13:00:27;;;;;;;16.87;11.30;;;18.70;43.40;;;;;;5034047;28;20494;-67
2022/03/23 13:03:18;;;;;;;13.50;10.47;;;18.80;43.10;;;;;;5034100;28;20922;-67
2022/03/23 13:05:59;;;;;;;14.30;11.10;;;18.70;42.90;;;;;;5034488;28;20417;-67
2022/03/23 13:08:29;;;;;;;16.10;10.20;;;18.60;43.00;;;;;;5034157;28;20974;-67
2022/03/23 13:11:00;;;;;;;11.73;9.10;;;18.70;42.70;;;;;;5034014;28;20642;-67
2022/03/23 13:13:27;;;;;;;11.67;8.63;;;18.70;42.70;;;;;;5033924;28;20754;-68
2022/03/23 13:15:53;;;;;;;13.53;10.50;;;18.60;42.90;;;;;;5033815;28;20485;-67